Time;durP1;ratioP1;P1;durP2;ratioP2;P2;SDS_P1;SDS_P2;PMS_P1;PMS_P2;Temp;Humidity;BMP_temperature;BMP_pressure;BME280_temperature;BME280_humidity;BME280_pressure;Samples;Min_cycle;Max_cycle;Signal;HPM_P1;HPM_P2
2022/07/18 00:00:38;;;;;;;3.78;2.00;;;23.20;84.00;;;;;;5115925;28;21009;-72
2022/07/18 00:03:05;;;;;;;3.55;1.80;;;23.10;83.80;;;;;;5115771;28;20225;-72
2022/07/18 00:05:32;;;;;;;2.78;1.83;;;23.10;83.10;;;;;;5116147;28;20239;-72
2022/07/18 00:07:59;;;;;;;3.60;1.90;;;23.10;83.80;;;;;;5115418;28;20764;-72
2022/07/18 00:10:26;;;;;;;5.00;2.10;;;23.00;82.90;;;;;;5116118;28;20256;-73
2022/07/18 00:12:53;;;;;;;2.55;2.00;;;23.00;81.80;;;;;;5116265;28;20205;-72
2022/07/18 00:15:20;;;;;;;2.42;1.90;;;23.00;80.40;;;;;;5116321;28;20280;-72
2022/07/18 00:17:48;;;;;;;4.05;2.38;;;23.10;79.10;;;;;;5115125;28;20277;-72
2022/07/18 00:20:15;;;;;;;3.13;1.77;;;23.00;79.50;;;;;;5115847;28;20225;-72
2022/07/18 00:22:42;;;;;;;3.40;1.83;;;23.00;79.90;;;;;;5114391;27;20232;-72
2022/07/18 00:25:09;;;;;;;3.25;1.85;;;22.90;80.10;;;;;;5115162;28;20629;-72
2022/07/18 00:27:36;;;;;;;4.18;2.03;;;23.00;79.10;;;;;;5113972;28;20198;-72
2022/07/18 00:30:05;;;;;;;3.22;2.10;;;22.90;79.90;;;;;;5115762;28;20313;-72
2022/07/18 00:32:32;;;;;;;2.50;1.80;;;22.80;80.80;;;;;;5114614;28;20294;-72
2022/07/18 00:35:00;;;;;;;3.90;1.90;;;22.80;83.10;;;;;;5115441;28;20194;-73
2022/07/18 00:37:27;;;;;;;3.70;1.90;;;22.90;81.40;;;;;;5115182;28;20229;-73
2022/07/18 00:39:54;;;;;;;4.82;2.20;;;22.80;81.00;;;;;;5114122;28;20248;-73
2022/07/18 00:42:21;;;;;;;3.78;2.08;;;22.90;79.70;;;;;;5115110;28;20232;-72
2022/07/18 00:44:52;;;;;;;5.43;2.35;;;22.90;79.20;;;;;;5114372;28;20241;-72
2022/07/18 00:47:19;;;;;;;3.60;1.90;;;22.80;79.70;;;;;;5115731;28;20193;-72
2022/07/18 00:49:46;;;;;;;3.42;1.80;;;22.70;81.10;;;;;;5114498;28;20305;-72
2022/07/18 00:52:15;;;;;;;5.50;2.22;;;22.60;82.60;;;;;;5115157;28;20243;-72
2022/07/18 00:54:42;;;;;;;4.53;2.30;;;22.50;84.80;;;;;;5114954;28;20288;-72
2022/07/18 00:57:09;;;;;;;2.65;1.83;;;22.50;87.00;;;;;;5114974;28;20285;-72
2022/07/18 01:02:22;;;;;;;2.03;1.80;;;22.30;90.30;;;;;;5114137;28;20200;-72
2022/07/18 01:04:49;;;;;;;2.00;1.80;;;22.20;90.50;;;;;;5114896;27;20224;-73
2022/07/18 01:07:17;;;;;;;4.00;1.90;;;22.20;91.30;;;;;;5113950;28;20255;-72
2022/07/18 01:09:44;;;;;;;2.10;1.90;;;22.20;91.50;;;;;;5114125;28;20217;-72
2022/07/18 01:12:12;;;;;;;4.97;1.98;;;22.20;91.60;;;;;;5114367;28;20233;-72
2022/07/18 01:14:39;;;;;;;3.03;1.92;;;22.20;91.10;;;;;;5115042;28;20240;-72
2022/07/18 01:17:14;;;;;;;4.68;1.98;;;22.10;92.40;;;;;;5113780;28;20280;-72
2022/07/18 01:19:40;;;;;;;3.15;1.90;;;22.10;91.90;;;;;;5113517;28;20217;-72
2022/07/18 01:22:09;;;;;;;2.55;2.17;;;22.10;92.20;;;;;;5112716;28;20285;-72
2022/07/18 01:24:37;;;;;;;8.55;2.20;;;22.20;91.60;;;;;;5114438;28;20234;-72
2022/07/18 01:27:04;;;;;;;2.13;1.90;;;22.20;91.20;;;;;;5114158;27;20733;-72
2022/07/18 01:29:31;;;;;;;2.65;2.00;;;22.10;91.70;;;;;;5113523;28;20234;-72
2022/07/18 01:32:04;;;;;;;2.70;2.10;;;22.20;91.70;;;;;;5113587;28;20284;-73
2022/07/18 01:34:30;;;;;;;5.00;2.47;;;22.20;91.90;;;;;;5114025;28;20243;-72
2022/07/18 01:36:57;;;;;;;4.38;2.22;;;22.10;92.00;;;;;;5113692;28;20240;-72
2022/07/18 01:39:26;;;;;;;2.20;2.00;;;22.20;91.90;;;;;;5112787;28;20233;-72
2022/07/18 01:41:56;;;;;;;2.22;2.03;;;22.20;91.60;;;;;;5114514;28;20704;-72
2022/07/18 01:44:23;;;;;;;2.40;2.20;;;22.10;91.70;;;;;;5114074;28;20210;-72
2022/07/18 01:46:50;;;;;;;4.88;2.15;;;22.10;92.00;;;;;;5114164;28;20738;-72
2022/07/18 01:49:17;;;;;;;2.63;1.92;;;22.00;92.20;;;;;;5113557;28;20246;-72
2022/07/18 01:51:46;;;;;;;3.08;2.22;;;22.00;92.30;;;;;;5113763;28;20265;-72
2022/07/18 01:54:13;;;;;;;3.20;2.10;;;22.10;91.50;;;;;;5113437;28;20582;-72
2022/07/18 01:56:42;;;;;;;2.78;2.00;;;22.10;91.20;;;;;;5111747;28;20233;-72
2022/07/18 01:59:08;;;;;;;3.75;2.08;;;22.20;90.70;;;;;;5113290;28;20740;-72
2022/07/18 02:01:36;;;;;;;2.88;2.03;;;22.10;90.70;;;;;;5114097;28;20286;-72
2022/07/18 02:04:03;;;;;;;2.95;1.80;;;22.20;90.00;;;;;;5113580;28;20288;-72
2022/07/18 02:06:30;;;;;;;5.13;2.00;;;22.10;90.50;;;;;;5107278;28;20290;-72
2022/07/18 02:08:57;;;;;;;2.63;1.98;;;22.00;91.10;;;;;;5112142;28;20283;-72
2022/07/18 02:11:24;;;;;;;3.13;2.10;;;22.00;91.10;;;;;;5113747;28;20240;-72
2022/07/18 02:13:52;;;;;;;2.90;2.38;;;22.00;91.20;;;;;;5113215;28;20284;-72
2022/07/18 02:16:19;;;;;;;4.45;2.03;;;22.00;91.30;;;;;;5112951;28;20255;-72
2022/07/18 02:18:46;;;;;;;2.35;1.98;;;22.10;90.90;;;;;;5112747;28;20260;-72
2022/07/18 02:21:14;;;;;;;2.05;1.92;;;21.90;91.30;;;;;;5112819;28;20236;-72
2022/07/18 02:23:41;;;;;;;3.00;2.17;;;21.80;92.40;;;;;;5113863;27;20202;-72
2022/07/18 02:26:09;;;;;;;4.38;2.15;;;21.80;92.80;;;;;;5112104;28;20245;-72
2022/07/18 02:28:36;;;;;;;3.83;2.30;;;21.90;93.10;;;;;;5113368;28;20692;-72
2022/07/18 02:31:05;;;;;;;2.47;2.15;;;21.70;92.80;;;;;;5113059;28;20285;-71
2022/07/18 02:33:32;;;;;;;3.38;1.95;;;21.80;93.30;;;;;;5113237;28;20237;-73
2022/07/18 02:35:59;;;;;;;3.45;2.28;;;21.80;93.30;;;;;;5112859;28;20252;-72
2022/07/18 02:38:26;;;;;;;3.30;2.13;;;21.70;94.00;;;;;;5112466;28;20696;-72
2022/07/18 02:40:53;;;;;;;2.72;2.08;;;21.70;93.80;;;;;;5112108;28;20244;-72
2022/07/18 02:43:20;;;;;;;2.50;2.30;;;21.70;93.20;;;;;;5111606;28;20205;-72
2022/07/18 02:45:47;;;;;;;3.38;2.20;;;21.70;92.60;;;;;;5111864;28;20229;-73
2022/07/18 02:48:16;;;;;;;4.28;2.38;;;21.70;92.70;;;;;;5111690;28;20285;-72
2022/07/18 02:50:43;;;;;;;5.03;2.30;;;21.70;92.60;;;;;;5110618;28;20260;-72
2022/07/18 02:53:10;;;;;;;3.60;2.20;;;21.80;92.50;;;;;;5112991;28;20236;-72
2022/07/18 02:55:37;;;;;;;3.45;2.20;;;21.80;92.60;;;;;;5112564;28;20327;-72
2022/07/18 02:58:04;;;;;;;3.40;2.05;;;21.80;91.30;;;;;;5113040;28;20280;-72
2022/07/18 03:00:31;;;;;;;3.08;2.17;;;21.90;91.00;;;;;;5112257;28;20229;-72
2022/07/18 03:02:57;;;;;;;4.13;2.00;;;21.80;91.60;;;;;;5112455;28;20680;-72
2022/07/18 03:05:26;;;;;;;5.88;2.20;;;21.70;92.30;;;;;;5112556;28;20281;-72
2022/07/18 03:07:53;;;;;;;4.03;2.28;;;21.80;91.40;;;;;;5112382;28;20236;-72
2022/07/18 03:10:20;;;;;;;3.85;2.28;;;21.70;91.70;;;;;;5111928;28;20253;-72
2022/07/18 03:12:46;;;;;;;3.55;2.03;;;21.60;91.70;;;;;;5112272;28;20233;-72
2022/07/18 03:15:13;;;;;;;2.97;2.25;;;21.60;91.90;;;;;;5112567;28;20288;-72
2022/07/18 03:17:40;;;;;;;3.00;2.00;;;21.70;92.40;;;;;;5112573;28;20241;-72
2022/07/18 03:20:08;;;;;;;3.42;2.15;;;21.60;93.40;;;;;;5112522;28;20536;-72
2022/07/18 03:22:36;;;;;;;2.67;2.10;;;21.50;92.90;;;;;;5112419;28;20237;-73
2022/07/18 03:25:04;;;;;;;3.75;2.15;;;21.50;93.50;;;;;;5112192;28;20233;-72
2022/07/18 03:27:31;;;;;;;3.25;2.20;;;21.50;94.10;;;;;;5111954;28;20290;-72
2022/07/18 03:29:58;;;;;;;7.85;2.40;;;21.30;94.80;;;;;;5111814;28;20217;-72
2022/07/18 03:32:25;;;;;;;4.80;2.22;;;21.30;95.70;;;;;;5111798;28;20229;-72
2022/07/18 03:34:52;;;;;;;3.75;2.33;;;21.20;96.60;;;;;;5111673;28;20233;-72
2022/07/18 03:37:18;;;;;;;4.55;2.22;;;21.10;97.00;;;;;;5112119;28;20225;-73
2022/07/18 03:39:47;;;;;;;2.72;2.38;;;21.10;96.80;;;;;;5111906;28;20197;-72
2022/07/18 03:42:14;;;;;;;5.32;2.17;;;21.00;98.50;;;;;;5098033;28;20281;-72
2022/07/18 03:44:41;;;;;;;4.45;2.45;;;21.10;97.50;;;;;;5111963;28;20237;-72
2022/07/18 03:47:07;;;;;;;5.15;2.50;;;21.20;96.90;;;;;;5112261;28;20240;-72
2022/07/18 03:49:34;;;;;;;4.05;2.33;;;21.10;97.80;;;;;;5111774;28;20257;-73
2022/07/18 03:52:01;;;;;;;3.78;2.28;;;21.10;98.10;;;;;;5111651;28;20269;-72
2022/07/18 03:54:28;;;;;;;6.63;2.40;;;21.10;98.10;;;;;;5111848;28;20631;-73
2022/07/18 03:56:56;;;;;;;4.40;2.30;;;21.00;98.00;;;;;;5112064;28;20237;-73
2022/07/18 03:59:23;;;;;;;2.63;2.28;;;21.00;97.80;;;;;;5112152;28;20233;-71
2022/07/18 04:01:50;;;;;;;3.45;2.30;;;20.90;98.20;;;;;;5111733;28;20206;-73
2022/07/18 04:04:17;;;;;;;3.85;2.00;;;21.00;99.70;;;;;;5111518;28;20259;-72
2022/07/18 04:06:44;;;;;;;3.22;2.40;;;20.90;99.30;;;;;;5112240;28;20722;-72
2022/07/18 04:09:11;;;;;;;3.80;2.40;;;20.80;99.50;;;;;;5112050;28;20226;-72
2022/07/18 04:11:38;;;;;;;3.72;2.42;;;20.70;99.90;;;;;;5112516;28;20281;-72
2022/07/18 04:14:06;;;;;;;2.53;2.03;;;20.80;99.60;;;;;;5111454;28;20288;-72
2022/07/18 04:16:33;;;;;;;3.72;2.40;;;20.80;98.40;;;;;;5111231;28;20633;-72
2022/07/18 04:19:00;;;;;;;2.70;2.22;;;21.00;98.60;;;;;;5111727;28;20273;-72
2022/07/18 04:21:27;;;;;;;3.15;2.05;;;21.00;97.00;;;;;;5115109;28;20240;-72
2022/07/18 04:23:54;;;;;;;2.40;2.10;;;21.00;97.00;;;;;;5114801;28;20673;-72
2022/07/18 04:26:21;;;;;;;5.28;2.47;;;21.00;96.00;;;;;;5115430;28;20255;-72
2022/07/18 04:28:48;;;;;;;3.17;2.20;;;21.10;95.30;;;;;;5114367;28;20206;-72
2022/07/18 04:31:17;;;;;;;4.53;2.28;;;21.10;94.70;;;;;;5115255;28;20711;-72
2022/07/18 04:33:44;;;;;;;2.88;2.15;;;21.00;95.20;;;;;;5115614;28;20263;-72
2022/07/18 04:36:10;;;;;;;4.43;2.10;;;21.30;93.60;;;;;;5114744;28;20274;-72
2022/07/18 04:38:38;;;;;;;3.42;2.47;;;21.20;94.60;;;;;;5114627;28;20645;-72
2022/07/18 04:41:05;;;;;;;4.82;2.35;;;21.10;94.50;;;;;;5115278;28;20194;-72
2022/07/18 04:43:32;;;;;;;4.50;2.42;;;21.00;96.40;;;;;;5114089;28;20209;-72
2022/07/18 04:45:59;;;;;;;4.25;2.38;;;20.90;97.90;;;;;;5114485;28;20236;-72
2022/07/18 04:48:27;;;;;;;4.68;2.85;;;20.90;97.40;;;;;;5110125;28;20244;-72
2022/07/18 04:50:54;;;;;;;7.95;2.40;;;21.10;95.80;;;;;;5112878;28;20317;-72
2022/07/18 04:53:21;;;;;;;5.20;2.53;;;21.10;97.00;;;;;;5115029;28;20241;-72
2022/07/18 04:55:49;;;;;;;5.18;2.70;;;21.10;95.60;;;;;;5115400;28;20233;-72
2022/07/18 04:58:16;;;;;;;4.97;2.20;;;21.30;94.40;;;;;;5111610;28;20233;-72
2022/07/18 05:00:42;;;;;;;8.55;2.50;;;21.50;93.90;;;;;;5115142;28;20277;-72
2022/07/18 05:03:09;;;;;;;7.35;2.58;;;21.50;93.90;;;;;;5114906;28;20638;-73
2022/07/18 05:05:38;;;;;;;4.93;2.47;;;21.60;93.30;;;;;;5114637;28;20281;-73
2022/07/18 05:08:05;;;;;;;7.03;2.40;;;21.60;93.20;;;;;;5114862;27;20230;-73
2022/07/18 05:10:32;;;;;;;9.77;2.35;;;21.60;92.80;;;;;;5114706;28;20278;-73
2022/07/18 05:13:02;;;;;;;7.20;2.33;;;21.80;92.50;;;;;;5114682;28;20645;-73
2022/07/18 05:15:29;;;;;;;5.93;2.05;;;21.80;92.40;;;;;;5114449;28;20285;-73
2022/07/18 05:17:56;;;;;;;5.90;2.60;;;22.00;91.30;;;;;;5114481;28;20202;-74
2022/07/18 05:20:25;;;;;;;7.82;2.83;;;22.10;91.10;;;;;;5113861;28;20285;-76
2022/07/18 05:22:54;;;;;;;3.78;2.60;;;22.20;90.70;;;;;;5114172;28;20225;-75
2022/07/18 05:25:23;;;;;;;4.72;2.30;;;22.30;87.60;;;;;;5113680;28;20244;-73
2022/07/18 05:27:50;;;;;;;6.75;2.30;;;22.40;85.00;;;;;;5114198;28;20229;-73
2022/07/18 05:30:17;;;;;;;7.25;2.42;;;22.50;84.10;;;;;;5114324;28;20308;-74
2022/07/18 05:32:45;;;;;;;7.63;2.58;;;22.70;82.10;;;;;;5113144;28;20719;-74
2022/07/18 05:35:13;;;;;;;5.78;2.20;;;22.80;79.20;;;;;;5113614;28;20313;-74
2022/07/18 05:37:40;;;;;;;4.20;2.33;;;23.10;75.90;;;;;;5113695;28;20229;-74
2022/07/18 05:40:11;;;;;;;4.63;2.15;;;23.30;72.00;;;;;;5112298;28;20288;-74
2022/07/18 05:42:38;;;;;;;5.50;2.50;;;23.60;70.00;;;;;;5108697;28;20298;-74
2022/07/18 05:45:07;;;;;;;4.78;2.10;;;23.80;65.70;;;;;;5106517;28;20221;-74
2022/07/18 05:47:34;;;;;;;7.22;2.25;;;23.90;60.00;;;;;;5113770;28;20198;-75
2022/07/18 05:50:01;;;;;;;5.50;2.20;;;24.10;59.90;;;;;;5113798;28;20309;-76
2022/07/18 05:52:28;;;;;;;7.65;2.72;;;24.30;54.90;;;;;;5112746;28;20229;-75
2022/07/18 05:54:54;;;;;;;7.72;2.35;;;24.50;52.80;;;;;;5103191;27;20236;-74
2022/07/18 05:57:23;;;;;;;3.88;2.58;;;24.70;47.30;;;;;;5102388;28;20288;-75
2022/07/18 05:59:50;;;;;;;4.63;2.38;;;25.00;45.20;;;;;;5110316;28;20221;-75
2022/07/18 06:02:17;;;;;;;8.35;2.58;;;25.20;42.70;;;;;;5113098;28;20293;-75
2022/07/18 06:04:44;;;;;;;3.45;2.40;;;25.60;40.50;;;;;;5111055;28;20248;-75
2022/07/18 06:07:11;;;;;;;5.38;2.10;;;26.20;35.00;;;;;;5112995;28;20432;-75
2022/07/18 06:09:38;;;;;;;8.73;2.50;;;26.20;33.00;;;;;;5112835;28;20399;-75
2022/07/18 06:12:06;;;;;;;4.80;2.40;;;26.80;24.70;;;;;;5110672;28;20281;-75
2022/07/18 06:14:34;;;;;;;6.47;2.40;;;27.20;19.50;;;;;;5112241;28;20202;-75
2022/07/18 06:17:01;;;;;;;6.05;2.40;;;27.30;16.40;;;;;;5112919;27;20277;-75
2022/07/18 06:19:28;;;;;;;9.07;2.25;;;27.90;14.60;;;;;;5109714;28;20604;-75
2022/07/18 06:21:55;;;;;;;4.13;2.20;;;28.10;11.50;;;;;;5106095;28;20233;-75
2022/07/18 06:24:22;;;;;;;4.15;2.05;;;28.30;9.60;;;;;;5111642;28;20454;-75
2022/07/18 06:26:49;;;;;;;9.00;2.40;;;29.00;3.60;;;;;;5113113;28;20725;-75
2022/07/18 06:29:16;;;;;;;9.20;2.40;;;29.20;5.30;;;;;;5112965;28;20194;-75
2022/07/18 06:31:45;;;;;;;3.78;2.30;;;28.90;1.50;;;;;;5112401;28;20225;-76
2022/07/18 06:34:11;;;;;;;8.95;2.45;;;29.40;1.00;;;;;;5112714;28;20744;-75
2022/07/18 06:36:38;;;;;;;5.43;2.08;;;29.50;1.00;;;;;;5112520;28;20237;-75
2022/07/18 06:39:10;;;;;;;4.45;2.08;;;29.60;1.00;;;;;;5111213;28;20738;-75
2022/07/18 06:41:37;;;;;;;3.50;2.22;;;30.30;1.00;;;;;;5108084;28;20197;-75
2022/07/18 06:44:05;;;;;;;5.82;2.47;;;31.10;1.00;;;;;;5110393;28;20225;-75
2022/07/18 06:46:32;;;;;;;5.40;2.10;;;31.00;1.00;;;;;;5111714;28;20225;-74
2022/07/18 06:49:00;;;;;;;3.53;2.13;;;31.10;1.00;;;;;;5111651;28;20241;-76
2022/07/18 06:51:27;;;;;;;7.72;2.13;;;31.80;1.00;;;;;;5111961;28;20634;-75
2022/07/18 06:53:54;;;;;;;3.17;1.88;;;32.10;1.00;;;;;;5111755;28;20288;-75
2022/07/18 06:56:21;;;;;;;3.90;2.03;;;31.60;1.00;;;;;;5112134;28;20229;-75
2022/07/18 06:58:50;;;;;;;4.70;2.00;;;31.80;1.00;;;;;;5111109;28;20304;-76
2022/07/18 07:01:18;;;;;;;3.28;2.05;;;32.10;1.00;;;;;;5110735;28;20196;-74
2022/07/18 07:03:45;;;;;;;2.45;2.00;;;32.10;1.00;;;;;;5112084;28;20225;-75
2022/07/18 07:06:15;;;;;;;2.80;2.00;;;31.60;1.00;;;;;;5110325;28;20280;-75
2022/07/18 07:08:42;;;;;;;5.65;2.40;;;31.60;1.00;;;;;;5111072;28;20242;-75
2022/07/18 07:11:09;;;;;;;3.35;2.03;;;32.20;1.00;;;;;;5111711;28;20252;-75
2022/07/18 07:13:36;;;;;;;3.78;2.20;;;32.10;1.00;;;;;;5111556;28;20225;-75
2022/07/18 07:16:03;;;;;;;2.83;2.08;;;31.90;1.00;;;;;;5110012;28;20241;-75
2022/07/18 07:18:30;;;;;;;4.95;2.20;;;31.90;1.00;;;;;;5112111;28;20225;-76
2022/07/18 07:20:57;;;;;;;4.82;2.40;;;32.80;1.00;;;;;;5110274;28;20198;-75
2022/07/18 07:23:25;;;;;;;6.03;2.10;;;32.00;1.00;;;;;;5111274;28;20277;-75
2022/07/18 07:25:52;;;;;;;2.25;2.03;;;31.70;1.00;;;;;;5111523;28;20293;-75
2022/07/18 07:28:19;;;;;;;3.83;2.15;;;31.50;1.00;;;;;;5111481;28;20225;-75
2022/07/18 07:30:46;;;;;;;3.30;2.10;;;31.40;1.00;;;;;;5106388;28;20225;-75
2022/07/18 07:33:13;;;;;;;2.78;2.08;;;31.70;1.00;;;;;;5111350;28;20285;-75
2022/07/18 07:35:40;;;;;;;2.95;1.90;;;31.60;1.00;;;;;;5112070;28;20256;-75
2022/07/18 07:38:07;;;;;;;3.58;2.22;;;31.20;1.00;;;;;;5112008;28;20284;-75
2022/07/18 07:40:35;;;;;;;2.53;2.22;;;32.00;1.00;;;;;;5111744;28;20194;-75
2022/07/18 07:43:07;;;;;;;4.63;2.10;;;32.60;1.00;;;;;;5108525;28;20280;-76
2022/07/18 07:45:35;;;;;;;2.08;1.80;;;32.90;1.00;;;;;;5109587;28;20240;-75
2022/07/18 07:48:02;;;;;;;2.25;2.00;;;32.40;1.00;;;;;;5110241;28;20202;-75
2022/07/18 07:50:29;;;;;;;4.60;2.70;;;31.60;1.00;;;;;;5110094;28;20308;-74
2022/07/18 07:52:56;;;;;;;4.38;2.50;;;30.90;1.00;;;;;;5110825;28;20312;-75
2022/07/18 07:55:23;;;;;;;2.30;2.10;;;31.60;1.00;;;;;;5112448;28;20209;-76
2022/07/18 07:57:52;;;;;;;4.68;2.40;;;32.40;1.00;;;;;;5113986;28;20229;-76
2022/07/18 08:00:19;;;;;;;2.97;2.25;;;32.10;1.00;;;;;;5114507;28;20621;-75
2022/07/18 08:02:54;;;;;;;3.53;2.35;;;32.80;1.00;;;;;;5113419;28;20289;-74
2022/07/18 08:05:21;;;;;;;5.25;2.08;;;31.50;1.00;;;;;;5113176;27;20243;-75
2022/07/18 08:07:48;;;;;;;2.88;2.38;;;31.10;1.00;;;;;;5113422;27;20293;-75
2022/07/18 08:10:16;;;;;;;3.95;2.60;;;31.40;1.00;;;;;;5118231;27;20256;-75
2022/07/18 08:12:43;;;;;;;3.25;2.40;;;31.30;1.00;;;;;;5112954;28;20245;-74
2022/07/18 08:15:13;;;;;;;3.83;2.30;;;31.40;1.00;;;;;;5109237;28;20229;-74
2022/07/18 08:17:40;;;;;;;2.72;2.17;;;32.10;1.00;;;;;;5120157;27;20563;-74
2022/07/18 08:20:09;;;;;;;3.00;2.10;;;33.60;1.00;;;;;;5111094;28;20201;-74
2022/07/18 08:22:36;;;;;;;3.35;2.30;;;33.50;1.00;;;;;;5112393;28;20633;-75
2022/07/18 08:25:03;;;;;;;4.40;2.30;;;33.00;1.00;;;;;;5108955;27;20210;-74
2022/07/18 08:27:30;;;;;;;3.35;2.42;;;33.60;1.00;;;;;;5110380;28;20232;-75
2022/07/18 08:29:57;;;;;;;5.18;2.15;;;34.10;1.00;;;;;;5113690;28;20688;-75
2022/07/18 08:32:25;;;;;;;3.90;2.20;;;33.90;1.00;;;;;;5111495;28;20194;-75
2022/07/18 08:34:53;;;;;;;2.30;2.10;;;34.80;1.00;;;;;;5113542;28;20290;-75
2022/07/18 08:37:21;;;;;;;3.30;2.13;;;35.30;1.00;;;;;;5112657;28;20270;-74
2022/07/18 08:39:48;;;;;;;5.05;2.30;;;35.00;1.00;;;;;;5114858;28;20205;-75
2022/07/18 08:42:19;;;;;;;4.43;2.38;;;35.10;1.00;;;;;;5113591;27;20723;-74
2022/07/18 08:44:46;;;;;;;5.30;2.40;;;35.30;1.00;;;;;;5113172;28;20724;-75
2022/07/18 08:47:15;;;;;;;4.18;2.45;;;34.80;1.00;;;;;;5109442;28;20229;-74
2022/07/18 08:49:43;;;;;;;4.93;2.40;;;35.30;1.00;;;;;;5108350;28;20609;-75
2022/07/18 08:52:10;;;;;;;4.60;2.08;;;35.90;1.00;;;;;;5111926;28;20260;-75
2022/07/18 08:54:37;;;;;;;3.53;2.05;;;36.20;1.00;;;;;;5112943;27;20233;-75
2022/07/18 08:57:04;;;;;;;5.68;2.45;;;36.20;1.00;;;;;;5110863;28;20235;-75
2022/07/18 08:59:31;;;;;;;3.28;2.13;;;36.70;1.00;;;;;;5112619;28;20229;-75
2022/07/18 09:01:59;;;;;;;3.20;2.10;;;36.30;1.00;;;;;;5112974;27;20664;-74
2022/07/18 09:04:36;;;;;;;2.47;2.00;;;36.10;1.00;;;;;;5105032;27;20245;-75
2022/07/18 09:07:06;;;;;;;3.17;2.17;;;36.80;1.00;;;;;;5110087;28;20229;-74
2022/07/18 09:09:33;;;;;;;4.40;1.92;;;37.60;1.00;;;;;;5115506;27;20300;-74
2022/07/18 09:12:03;;;;;;;5.47;2.38;;;37.00;1.00;;;;;;5118643;27;20275;-74
2022/07/18 09:14:31;;;;;;;3.85;2.50;;;36.60;1.00;;;;;;5126225;27;20228;-75
2022/07/18 09:17:03;;;;;;;2.85;2.03;;;36.90;1.00;;;;;;5109141;27;20235;-74
2022/07/18 09:19:30;;;;;;;3.58;1.95;;;36.10;1.00;;;;;;5113208;28;20232;-74
2022/07/18 09:22:24;;;;;;;3.33;2.20;;;36.30;1.00;;;;;;5113512;28;20240;-75
2022/07/18 09:24:53;;;;;;;3.83;2.20;;;36.20;1.00;;;;;;5113640;27;20289;-74
2022/07/18 09:27:25;;;;;;;3.88;2.03;;;35.20;1.00;;;;;;5110350;27;20284;-76
2022/07/18 09:30:09;;;;;;;2.10;1.92;;;36.30;1.00;;;;;;5113392;28;20278;-74
2022/07/18 09:32:36;;;;;;;2.88;1.95;;;37.00;1.00;;;;;;5109996;28;20308;-74
2022/07/18 09:35:07;;;;;;;5.35;1.98;;;37.60;1.00;;;;;;5111696;27;20292;-75
2022/07/18 09:37:36;;;;;;;4.13;2.08;;;37.70;1.00;;;;;;5114441;27;20292;-75
2022/07/18 09:40:17;;;;;;;2.67;2.00;;;37.10;1.00;;;;;;5112121;27;20747;-75
2022/07/18 09:42:44;;;;;;;3.35;2.08;;;36.70;1.00;;;;;;5109420;27;20605;-75
2022/07/18 09:45:11;;;;;;;2.67;1.65;;;35.90;1.00;;;;;;5116766;27;20244;-74
2022/07/18 09:47:53;;;;;;;3.08;2.03;;;35.30;1.00;;;;;;5115017;27;20197;-74
2022/07/18 09:50:28;;;;;;;2.22;1.90;;;36.40;1.00;;;;;;5114065;27;20256;-75
2022/07/18 09:53:10;;;;;;;2.88;2.20;;;36.30;1.00;;;;;;5115135;27;20272;-74
2022/07/18 09:55:43;;;;;;;3.00;1.83;;;36.90;1.00;;;;;;5110784;27;20236;-75
2022/07/18 09:58:10;;;;;;;3.42;1.90;;;37.30;1.00;;;;;;5114409;27;20251;-74
2022/07/18 10:00:40;;;;;;;3.72;1.83;;;37.80;1.00;;;;;;5112188;27;20240;-75
2022/07/18 10:03:08;;;;;;;3.20;2.15;;;37.50;1.00;;;;;;5113806;27;20203;-74
2022/07/18 10:05:37;;;;;;;4.05;2.13;;;36.80;1.00;;;;;;5114349;27;20296;-75
2022/07/18 10:08:07;;;;;;;2.10;1.90;;;37.60;1.00;;;;;;5111244;27;21098;-74
2022/07/18 10:10:34;;;;;;;1.98;1.77;;;38.60;1.00;;;;;;5112796;27;20704;-74
2022/07/18 10:13:03;;;;;;;2.38;1.70;;;39.80;1.00;;;;;;5113926;27;20236;-75
2022/07/18 10:15:33;;;;;;;2.10;1.73;;;40.00;1.00;;;;;;5120777;27;20228;-75
2022/07/18 10:18:01;;;;;;;5.85;1.83;;;39.50;1.00;;;;;;5113897;27;20615;-75
2022/07/18 10:20:32;;;;;;;3.20;1.85;;;39.90;1.00;;;;;;5112380;27;20205;-75
2022/07/18 10:23:07;;;;;;;4.88;2.10;;;38.70;1.00;;;;;;5112328;27;20205;-73
2022/07/18 10:25:36;;;;;;;2.72;1.88;;;40.10;1.00;;;;;;5110471;28;20278;-75
2022/07/18 10:28:07;;;;;;;2.03;1.83;;;39.80;1.00;;;;;;5111817;28;20669;-74
2022/07/18 10:30:45;;;;;;;2.67;1.60;;;40.40;1.00;;;;;;5110217;28;20202;-74
2022/07/18 10:33:41;;;;;;;3.45;1.75;;;41.00;1.00;;;;;;5111921;28;20279;-74
2022/07/18 10:36:10;;;;;;;2.85;1.77;;;41.00;1.00;;;;;;5112489;28;20604;-74
2022/07/18 10:38:38;;;;;;;1.88;1.77;;;40.30;1.00;;;;;;5112109;28;20205;-74
2022/07/18 10:41:09;;;;;;;2.83;1.70;;;40.20;1.00;;;;;;5111727;28;20249;-74
2022/07/18 10:43:41;;;;;;;2.38;1.90;;;39.20;1.00;;;;;;5111708;28;20242;-74
2022/07/18 10:46:09;;;;;;;2.70;1.90;;;39.20;1.00;;;;;;5112401;27;20239;-74
2022/07/18 10:48:50;;;;;;;3.70;1.65;;;38.40;1.00;;;;;;5112399;28;20657;-75
2022/07/18 10:51:18;;;;;;;3.08;1.60;;;39.50;1.00;;;;;;5111461;28;20264;-74
2022/07/18 10:54:04;;;;;;;5.07;1.63;;;39.80;1.00;;;;;;5111081;28;20205;-74
2022/07/18 10:57:11;;;;;;;6.75;1.70;;;39.70;1.00;;;;;;5109831;28;20209;-74
2022/07/18 10:59:55;;;;;;;2.72;1.42;;;40.30;1.00;;;;;;5109792;28;20758;-74
2022/07/18 11:02:32;;;;;;;2.25;1.50;;;39.50;1.00;;;;;;5111939;28;20248;-74
2022/07/18 11:04:59;;;;;;;6.25;1.50;;;39.10;1.00;;;;;;5109039;28;20197;-74
2022/07/18 11:07:26;;;;;;;2.80;1.70;;;39.80;1.00;;;;;;5108585;28;20229;-75
2022/07/18 11:09:53;;;;;;;3.92;1.33;;;40.10;1.00;;;;;;5110634;28;20258;-75
2022/07/18 11:12:23;;;;;;;2.75;1.40;;;41.50;1.00;;;;;;5109235;28;20297;-75
2022/07/18 11:15:14;;;;;;;4.22;1.42;;;41.50;1.00;;;;;;5104501;27;20270;-75
2022/07/18 11:18:11;;;;;;;2.25;1.50;;;41.00;1.00;;;;;;5111653;28;20208;-75
2022/07/18 11:20:41;;;;;;;4.95;1.70;;;40.10;1.00;;;;;;5065990;28;20230;-75
2022/07/18 11:23:20;;;;;;;2.42;1.92;;;40.40;1.00;;;;;;5067563;28;20737;-75
2022/07/18 11:25:47;;;;;;;3.65;1.85;;;41.30;1.00;;;;;;5058318;28;20294;-75
2022/07/18 11:28:16;;;;;;;3.10;1.45;;;41.20;1.00;;;;;;5061152;28;20195;-75
2022/07/18 11:30:44;;;;;;;2.38;1.85;;;41.50;1.00;;;;;;5065771;28;20294;-75
2022/07/18 11:33:22;;;;;;;3.17;1.70;;;41.10;1.00;;;;;;5062217;28;20286;-74
2022/07/18 11:35:50;;;;;;;5.18;1.70;;;40.00;1.00;;;;;;5064250;28;20260;-74
2022/07/18 11:38:18;;;;;;;3.40;1.60;;;40.90;1.00;;;;;;5069489;28;20289;-74
2022/07/18 11:40:49;;;;;;;2.10;1.48;;;41.10;1.00;;;;;;5069754;28;20329;-74
2022/07/18 11:43:25;;;;;;;2.47;1.80;;;40.60;1.00;;;;;;5069609;28;20827;-75
2022/07/18 11:46:06;;;;;;;1.73;1.63;;;40.10;1.00;;;;;;5069945;28;20281;-75
2022/07/18 11:48:34;;;;;;;1.70;1.60;;;40.30;1.00;;;;;;5063545;28;20249;-74
2022/07/18 11:51:01;;;;;;;2.30;1.60;;;40.90;1.00;;;;;;5068349;28;20262;-75
2022/07/18 11:53:29;;;;;;;2.08;1.85;;;41.20;1.00;;;;;;5070305;28;20638;-74
2022/07/18 11:55:57;;;;;;;2.40;1.52;;;41.10;1.00;;;;;;5108074;28;20236;-75
2022/07/18 11:58:25;;;;;;;2.20;1.45;;;40.40;1.00;;;;;;5108049;28;20576;-74
2022/07/18 12:00:58;;;;;;;13.50;1.80;;;40.00;1.00;;;;;;5114674;28;20237;-74
2022/07/18 12:03:27;;;;;;;2.35;1.60;;;40.60;1.00;;;;;;5116739;28;20649;-74
2022/07/18 12:05:54;;;;;;;2.25;1.80;;;41.30;1.00;;;;;;5116065;28;20196;-74
2022/07/18 12:08:33;;;;;;;3.30;1.63;;;41.70;1.00;;;;;;5114324;28;20280;-75
2022/07/18 12:11:05;;;;;;;3.70;1.85;;;41.80;1.00;;;;;;5109016;28;20297;-74
2022/07/18 12:13:54;;;;;;;2.60;1.90;;;41.30;1.00;;;;;;5113620;28;20250;-74
2022/07/18 12:16:30;;;;;;;3.58;1.90;;;40.10;1.00;;;;;;5112531;28;20193;-75
2022/07/18 12:18:59;;;;;;;6.13;2.00;;;40.60;1.00;;;;;;5110470;28;20200;-74
2022/07/18 12:21:39;;;;;;;4.32;2.15;;;39.80;1.00;;;;;;5113069;28;20254;-74
2022/07/18 12:24:19;;;;;;;2.83;1.80;;;40.10;1.00;;;;;;5107808;28;20236;-74
2022/07/18 12:26:46;;;;;;;3.92;2.00;;;40.70;1.00;;;;;;5113719;28;20284;-74
2022/07/18 12:29:14;;;;;;;5.50;2.10;;;41.30;1.00;;;;;;5111011;28;20205;-74
2022/07/18 12:31:43;;;;;;;3.20;1.95;;;41.50;1.00;;;;;;5111633;28;20237;-74
2022/07/18 12:34:14;;;;;;;2.40;2.10;;;40.70;1.00;;;;;;5111641;28;20258;-74
2022/07/18 12:36:55;;;;;;;2.72;2.00;;;40.10;1.00;;;;;;5111149;28;20284;-74
2022/07/18 12:39:29;;;;;;;2.20;1.88;;;40.50;1.00;;;;;;5107946;28;20204;-74
2022/07/18 12:41:57;;;;;;;4.05;2.03;;;40.10;1.00;;;;;;5109361;27;20212;-74
2022/07/18 12:44:25;;;;;;;3.00;1.98;;;40.30;1.00;;;;;;5112087;27;20236;-74
2022/07/18 12:46:55;;;;;;;3.50;1.92;;;41.00;1.00;;;;;;5112937;27;20680;-74
2022/07/18 12:49:23;;;;;;;3.17;2.00;;;41.40;1.00;;;;;;5113607;27;20205;-74
2022/07/18 12:51:50;;;;;;;2.55;2.20;;;42.00;1.00;;;;;;5111597;27;20285;-74
2022/07/18 12:54:17;;;;;;;5.97;2.47;;;42.10;1.00;;;;;;5115293;27;20201;-75
2022/07/18 12:56:44;;;;;;;6.72;2.22;;;41.60;1.00;;;;;;5111117;28;20201;-77
2022/07/18 12:59:11;;;;;;;2.20;2.00;;;41.80;1.00;;;;;;5112880;28;20237;-75
2022/07/18 13:01:40;;;;;;;2.97;2.30;;;40.90;1.00;;;;;;5114737;28;20212;-75
2022/07/18 13:04:06;;;;;;;6.28;2.67;;;40.40;1.00;;;;;;5113057;27;20201;-75